Time;durP1;ratioP1;P1;durP2;ratioP2;P2;SDS_P1;SDS_P2;PMS_P1;PMS_P2;Temp;Humidity;BMP_temperature;BMP_pressure;BME280_temperature;BME280_humidity;BME280_pressure;Samples;Min_cycle;Max_cycle;Signal;HPM_P1;HPM_P2
2021/08/15 00:00:31;;;;;;;7.53;6.00;;;17.90;99.90;;;;;;4943362;28;20670;-73
2021/08/15 00:03:04;;;;;;;10.33;5.50;;;17.90;99.90;;;;;;4943096;28;20630;-73
2021/08/15 00:05:47;;;;;;;9.30;5.33;;;17.90;99.90;;;;;;4943551;29;20611;-73
2021/08/15 00:08:12;;;;;;;9.00;5.30;;;17.80;99.90;;;;;;4944813;28;20630;-73
2021/08/15 00:10:38;;;;;;;9.30;5.53;;;17.80;99.90;;;;;;4943590;28;20725;-73
2021/08/15 00:13:12;;;;;;;7.07;5.33;;;17.80;99.90;;;;;;4940359;28;20358;-73
2021/08/15 00:15:39;;;;;;;10.50;5.83;;;17.80;99.90;;;;;;4944522;29;20616;-73
2021/08/15 00:18:07;;;;;;;10.00;6.23;;;17.80;99.90;;;;;;4942795;28;20753;-73
2021/08/15 00:20:33;;;;;;;8.83;6.07;;;17.80;99.90;;;;;;4940872;28;20659;-73
2021/08/15 00:23:01;;;;;;;7.80;5.70;;;17.80;99.90;;;;;;4942059;28;21067;-73
2021/08/15 00:25:27;;;;;;;9.57;5.70;;;17.80;99.90;;;;;;4942492;29;20245;-73
2021/08/15 00:27:55;;;;;;;8.43;5.57;;;17.80;99.90;;;;;;4940453;29;20659;-73
2021/08/15 00:30:20;;;;;;;7.23;5.63;;;17.70;99.90;;;;;;4940321;29;20722;-73
2021/08/15 00:32:50;;;;;;;10.57;5.87;;;17.80;99.90;;;;;;4939790;28;20632;-73
2021/08/15 00:35:18;;;;;;;10.23;5.80;;;17.70;99.90;;;;;;4941210;29;20199;-73
2021/08/15 00:37:47;;;;;;;9.13;5.40;;;17.70;99.90;;;;;;4942244;28;20706;-73
2021/08/15 00:40:12;;;;;;;11.30;5.80;;;17.70;99.90;;;;;;4940183;28;20751;-73
2021/08/15 00:42:41;;;;;;;9.57;5.90;;;17.60;99.90;;;;;;4942171;28;20819;-74
2021/08/15 00:45:11;;;;;;;9.37;5.40;;;17.60;99.90;;;;;;4941506;28;21215;-73
2021/08/15 00:47:47;;;;;;;6.50;5.57;;;17.60;99.90;;;;;;4940868;28;20605;-73
2021/08/15 00:50:15;;;;;;;9.53;5.90;;;17.60;99.90;;;;;;4941897;29;20801;-73
2021/08/15 00:52:43;;;;;;;9.50;5.90;;;17.60;99.90;;;;;;4940516;28;20627;-73
2021/08/15 00:55:11;;;;;;;13.07;6.30;;;17.60;99.90;;;;;;4941177;29;20949;-74
2021/08/15 00:57:43;;;;;;;8.50;5.80;;;17.60;99.90;;;;;;4941095;29;21557;-73
2021/08/15 01:00:12;;;;;;;7.23;6.30;;;17.60;99.90;;;;;;4942323;29;20709;-73
2021/08/15 01:02:47;;;;;;;5.60;5.10;;;17.60;99.90;;;;;;4939999;28;20727;-74
2021/08/15 01:05:15;;;;;;;7.93;5.63;;;17.60;99.90;;;;;;4941850;29;21031;-74
2021/08/15 01:07:42;;;;;;;11.20;5.93;;;17.60;99.90;;;;;;4946258;29;20641;-74
2021/08/15 01:10:10;;;;;;;6.43;5.40;;;17.60;99.90;;;;;;4940034;29;20678;-74
2021/08/15 01:12:42;;;;;;;8.20;5.47;;;17.60;99.90;;;;;;4942241;28;20845;-72
2021/08/15 01:15:09;;;;;;;9.17;5.63;;;17.60;99.90;;;;;;4941227;29;20974;-72
2021/08/15 01:17:34;;;;;;;8.57;5.00;;;17.70;99.90;;;;;;4940833;28;20621;-72
2021/08/15 01:20:00;;;;;;;9.43;6.43;;;17.70;99.90;;;;;;4942371;28;20650;-72
2021/08/15 01:22:36;;;;;;;8.03;5.10;;;17.70;99.90;;;;;;4938458;28;20227;-73
2021/08/15 01:25:05;;;;;;;6.50;5.10;;;17.70;99.90;;;;;;4945787;29;20191;-72
2021/08/15 01:27:40;;;;;;;8.37;5.37;;;17.80;99.90;;;;;;4941839;29;20616;-72
2021/08/15 01:30:08;;;;;;;9.30;5.00;;;17.80;99.90;;;;;;4945793;28;20658;-72
2021/08/15 01:32:36;;;;;;;8.60;5.77;;;17.80;99.90;;;;;;4938986;28;20670;-72
2021/08/15 01:35:05;;;;;;;9.60;5.37;;;17.80;99.90;;;;;;4945365;29;20708;-72
2021/08/15 01:37:31;;;;;;;6.23;5.53;;;17.80;99.90;;;;;;4939824;29;20620;-72
2021/08/15 01:40:01;;;;;;;6.87;5.20;;;17.80;99.90;;;;;;4942753;28;20968;-72
2021/08/15 01:42:30;;;;;;;6.20;4.60;;;17.80;99.90;;;;;;4939136;28;20223;-72
2021/08/15 01:44:58;;;;;;;7.20;4.90;;;17.80;99.90;;;;;;4939235;29;20754;-72
2021/08/15 01:47:24;;;;;;;5.50;4.47;;;17.80;99.90;;;;;;4940434;29;20633;-72
2021/08/15 01:49:49;;;;;;;8.17;5.97;;;17.90;99.90;;;;;;4940120;28;21230;-72
2021/08/15 01:52:15;;;;;;;6.80;5.10;;;17.90;99.90;;;;;;4938778;28;20414;-72
2021/08/15 01:54:48;;;;;;;6.40;4.90;;;17.90;99.90;;;;;;4940464;29;20715;-73
2021/08/15 01:57:14;;;;;;;11.37;5.90;;;17.90;99.90;;;;;;4940146;29;20506;-72
2021/08/15 01:59:39;;;;;;;10.20;5.50;;;17.90;99.90;;;;;;4940731;28;21195;-73
2021/08/15 02:02:11;;;;;;;5.20;4.70;;;17.90;99.90;;;;;;4937403;28;20226;-72
2021/08/15 02:04:39;;;;;;;6.80;5.13;;;17.90;99.90;;;;;;4937344;29;20248;-72
2021/08/15 02:07:05;;;;;;;8.67;5.00;;;17.90;99.90;;;;;;4939656;29;20714;-72
2021/08/15 02:09:31;;;;;;;7.87;4.80;;;18.00;99.90;;;;;;4941041;28;20670;-73
2021/08/15 02:11:56;;;;;;;8.20;5.80;;;18.00;99.90;;;;;;4938693;28;20859;-73
2021/08/15 02:14:22;;;;;;;8.10;5.10;;;18.00;99.90;;;;;;4940731;28;20273;-72
2021/08/15 02:16:47;;;;;;;6.63;4.33;;;18.00;99.90;;;;;;4939224;28;20223;-72
2021/08/15 02:19:15;;;;;;;6.47;4.57;;;18.00;99.90;;;;;;4937500;28;20275;-72
2021/08/15 02:21:41;;;;;;;6.60;4.97;;;18.00;99.90;;;;;;4941086;28;20224;-72
2021/08/15 02:24:06;;;;;;;6.10;4.17;;;18.00;99.90;;;;;;4939560;29;20732;-72
2021/08/15 02:26:34;;;;;;;6.20;4.97;;;18.00;99.90;;;;;;4941318;28;20208;-72
2021/08/15 02:29:03;;;;;;;6.17;4.60;;;18.10;99.90;;;;;;4939738;28;20185;-72
2021/08/15 02:31:30;;;;;;;5.17;4.33;;;18.10;99.90;;;;;;4942600;28;20824;-72
2021/08/15 02:34:01;;;;;;;8.00;5.30;;;18.10;99.90;;;;;;4940344;29;21048;-72
2021/08/15 02:36:34;;;;;;;6.83;5.20;;;18.10;99.90;;;;;;4939553;29;20615;-72
2021/08/15 02:39:00;;;;;;;6.43;4.80;;;18.00;99.90;;;;;;4937631;29;21563;-72
2021/08/15 02:41:26;;;;;;;7.53;5.20;;;18.00;99.90;;;;;;4942802;28;20651;-72
2021/08/15 02:43:56;;;;;;;9.60;5.00;;;18.00;99.90;;;;;;4936532;28;20637;-73
2021/08/15 02:46:24;;;;;;;6.33;5.07;;;18.00;99.90;;;;;;4940516;28;20191;-72
2021/08/15 02:48:50;;;;;;;8.93;4.73;;;18.00;99.90;;;;;;4946921;28;20620;-72
2021/08/15 02:51:15;;;;;;;7.40;4.80;;;18.00;99.90;;;;;;4949622;28;20729;-72
2021/08/15 02:53:41;;;;;;;6.80;5.23;;;18.00;99.90;;;;;;4939120;29;20418;-72
2021/08/15 02:56:08;;;;;;;9.10;5.10;;;18.00;99.90;;;;;;4941202;29;20655;-72
2021/08/15 02:58:36;;;;;;;7.30;5.00;;;18.00;99.90;;;;;;4940592;29;20210;-72
2021/08/15 03:01:04;;;;;;;8.50;5.00;;;18.10;99.90;;;;;;4945478;28;20743;-72
2021/08/15 03:03:32;;;;;;;6.23;4.87;;;18.00;99.90;;;;;;4937408;28;21250;-72
2021/08/15 03:05:57;;;;;;;7.07;5.27;;;18.00;99.90;;;;;;4944758;28;20702;-73
2021/08/15 03:08:25;;;;;;;6.73;4.90;;;18.00;99.90;;;;;;4939767;28;20623;-72
2021/08/15 03:10:50;;;;;;;8.10;5.17;;;18.00;99.90;;;;;;4938202;28;20242;-72
2021/08/15 03:13:16;;;;;;;6.10;5.03;;;18.00;99.90;;;;;;4938102;28;20642;-73
2021/08/15 03:15:42;;;;;;;5.93;5.17;;;18.00;99.90;;;;;;4940519;29;20570;-72
2021/08/15 03:18:07;;;;;;;6.07;4.73;;;18.00;99.90;;;;;;4939334;28;20687;-73
2021/08/15 03:20:36;;;;;;;8.27;5.10;;;18.00;99.90;;;;;;4937973;28;20625;-72
2021/08/15 03:23:04;;;;;;;5.30;4.67;;;18.00;99.90;;;;;;4937663;28;20239;-73
2021/08/15 03:25:34;;;;;;;9.20;5.70;;;18.00;99.90;;;;;;4944175;29;20682;-73
2021/08/15 03:27:59;;;;;;;10.37;6.20;;;17.90;99.90;;;;;;4938765;28;20624;-73
2021/08/15 03:30:25;;;;;;;7.33;6.20;;;17.90;99.90;;;;;;4936679;28;20664;-72
2021/08/15 03:32:50;;;;;;;6.40;5.30;;;17.90;99.90;;;;;;4934601;28;20230;-72
2021/08/15 03:35:18;;;;;;;5.90;5.30;;;17.90;99.90;;;;;;4940950;28;20223;-73
2021/08/15 03:37:43;;;;;;;9.13;5.27;;;17.80;99.90;;;;;;4942068;29;20195;-73
2021/08/15 03:40:12;;;;;;;6.17;5.57;;;17.80;99.90;;;;;;4944092;28;20662;-72
2021/08/15 03:42:40;;;;;;;9.40;5.60;;;17.80;99.90;;;;;;4941593;28;20228;-73
2021/08/15 03:45:07;;;;;;;10.50;5.57;;;17.80;99.90;;;;;;4945102;29;20638;-72
2021/08/15 03:47:33;;;;;;;8.10;5.70;;;17.80;99.90;;;;;;4943880;29;20654;-73
2021/08/15 03:50:02;;;;;;;8.13;6.10;;;17.70;99.90;;;;;;4941182;28;20675;-73
2021/08/15 03:52:30;;;;;;;11.00;6.13;;;17.70;99.90;;;;;;4940513;28;20685;-72
2021/08/15 03:55:00;;;;;;;8.50;6.27;;;17.60;99.90;;;;;;4943561;29;21009;-73
2021/08/15 03:57:28;;;;;;;8.87;5.80;;;17.60;99.90;;;;;;4942837;29;20611;-73
2021/08/15 03:59:54;;;;;;;10.70;6.50;;;17.50;99.90;;;;;;4943471;28;20653;-72
2021/08/15 04:02:22;;;;;;;7.57;5.90;;;17.50;99.90;;;;;;4944512;28;21327;-72
2021/08/15 04:04:47;;;;;;;7.27;6.10;;;17.50;99.90;;;;;;4947522;28;20214;-72
2021/08/15 04:07:13;;;;;;;9.23;6.20;;;17.50;99.90;;;;;;4943952;29;20650;-73
2021/08/15 04:09:40;;;;;;;8.37;6.37;;;17.50;99.90;;;;;;4947984;28;20255;-72
2021/08/15 04:12:06;;;;;;;7.90;6.00;;;17.50;99.90;;;;;;4941214;28;20230;-72
2021/08/15 04:14:32;;;;;;;8.20;6.37;;;17.50;99.90;;;;;;4941843;29;20615;-73
2021/08/15 04:16:59;;;;;;;7.13;6.43;;;17.50;99.90;;;;;;4943253;28;20196;-72
2021/08/15 04:19:32;;;;;;;9.80;6.23;;;17.50;99.90;;;;;;4956032;28;20192;-73
2021/08/15 04:21:58;;;;;;;9.60;6.50;;;17.60;99.90;;;;;;4940751;28;20635;-73
2021/08/15 04:24:26;;;;;;;12.37;6.73;;;17.60;99.90;;;;;;4941175;28;20645;-72
2021/08/15 04:26:54;;;;;;;10.03;6.70;;;17.60;99.90;;;;;;4940723;29;20192;-72
2021/08/15 04:29:19;;;;;;;7.97;7.20;;;17.60;99.90;;;;;;4941953;28;20743;-73
2021/08/15 04:31:45;;;;;;;8.20;6.20;;;17.60;99.90;;;;;;4940405;28;20655;-72
2021/08/15 04:34:10;;;;;;;7.67;6.70;;;17.60;99.90;;;;;;4940705;29;20246;-73
2021/08/15 04:36:36;;;;;;;7.53;6.10;;;17.60;99.90;;;;;;4940800;29;20851;-72
2021/08/15 04:39:03;;;;;;;7.67;6.70;;;17.60;99.90;;;;;;4939629;29;20341;-72
2021/08/15 04:41:31;;;;;;;7.10;5.93;;;17.60;99.90;;;;;;4939103;28;20215;-73
2021/08/15 04:43:56;;;;;;;7.47;6.13;;;17.60;99.90;;;;;;4940036;29;20623;-72
2021/08/15 04:46:22;;;;;;;7.70;5.90;;;17.60;99.90;;;;;;4941604;28;20623;-72
2021/08/15 04:48:48;;;;;;;7.10;6.33;;;17.50;99.90;;;;;;4941298;29;20546;-72
2021/08/15 04:51:13;;;;;;;10.17;6.63;;;17.50;99.90;;;;;;4940689;28;20254;-72
2021/08/15 04:53:39;;;;;;;10.87;7.23;;;17.50;99.90;;;;;;4939362;28;20204;-72
2021/08/15 04:56:07;;;;;;;7.33;6.33;;;17.50;99.90;;;;;;4939879;28;20200;-73
2021/08/15 04:58:32;;;;;;;7.40;6.60;;;17.40;99.90;;;;;;4944690;28;20196;-73
2021/08/15 05:01:00;;;;;;;8.20;7.40;;;17.50;99.90;;;;;;4939406;28;20650;-72
2021/08/15 05:03:28;;;;;;;10.13;7.10;;;17.50;99.90;;;;;;4943106;28;20231;-72
2021/08/15 05:05:53;;;;;;;9.67;6.17;;;17.50;99.90;;;;;;4937275;28;20779;-72
2021/08/15 05:08:19;;;;;;;7.50;6.80;;;17.50;99.90;;;;;;4938321;28;20632;-72
2021/08/15 05:10:44;;;;;;;7.20;6.30;;;17.50;99.90;;;;;;4935760;28;20270;-72
2021/08/15 05:13:15;;;;;;;9.20;7.50;;;17.50;99.90;;;;;;4935563;28;20216;-72
2021/08/15 05:15:43;;;;;;;8.93;6.10;;;17.60;99.90;;;;;;4935118;29;20746;-72
2021/08/15 05:18:09;;;;;;;8.23;6.60;;;17.50;99.90;;;;;;4936524;29;20623;-72
2021/08/15 05:20:37;;;;;;;8.43;7.50;;;17.50;99.90;;;;;;4931895;29;20654;-72
2021/08/15 05:23:03;;;;;;;8.90;7.23;;;17.50;99.90;;;;;;4936584;28;20231;-72
2021/08/15 05:25:31;;;;;;;7.40;6.70;;;17.50;99.90;;;;;;4938498;28;21052;-72
2021/08/15 05:27:59;;;;;;;9.27;6.80;;;17.50;99.90;;;;;;4937597;29;20672;-72
2021/08/15 05:30:24;;;;;;;8.37;7.50;;;17.50;99.90;;;;;;4938202;29;20725;-72
2021/08/15 05:32:50;;;;;;;7.40;6.70;;;17.50;99.90;;;;;;4940714;28;20758;-72
2021/08/15 05:35:16;;;;;;;7.33;6.53;;;17.50;99.90;;;;;;4935107;29;20386;-73
2021/08/15 05:37:44;;;;;;;7.07;6.43;;;17.50;99.90;;;;;;4935507;29;20593;-72
2021/08/15 05:40:10;;;;;;;7.30;6.53;;;17.50;99.90;;;;;;4938534;28;20271;-72
2021/08/15 05:42:41;;;;;;;7.30;6.53;;;17.50;99.90;;;;;;4953340;28;20643;-72
2021/08/15 05:45:10;;;;;;;7.93;6.67;;;17.60;99.90;;;;;;4945325;29;20628;-73
2021/08/15 05:47:39;;;;;;;9.20;7.03;;;17.60;99.90;;;;;;4938395;28;21177;-73
2021/08/15 05:50:09;;;;;;;9.13;6.70;;;17.60;99.90;;;;;;4936859;28;20770;-72
2021/08/15 05:52:40;;;;;;;10.03;6.90;;;17.60;99.90;;;;;;4932585;28;20635;-72
2021/08/15 05:55:11;;;;;;;7.10;6.40;;;17.60;99.90;;;;;;4932865;29;20636;-72
2021/08/15 05:57:37;;;;;;;7.27;6.00;;;17.60;99.90;;;;;;4932789;29;20671;-72
2021/08/15 06:00:04;;;;;;;7.13;6.03;;;17.60;99.90;;;;;;4933514;28;20675;-72
2021/08/15 06:02:30;;;;;;;6.90;6.10;;;17.60;99.90;;;;;;4934877;28;21261;-72
2021/08/15 06:04:55;;;;;;;6.90;6.20;;;17.70;99.90;;;;;;4926739;28;20780;-73
2021/08/15 06:07:21;;;;;;;7.50;5.27;;;17.70;99.90;;;;;;4931165;28;20204;-72
2021/08/15 06:09:46;;;;;;;6.40;5.43;;;17.70;99.90;;;;;;4935039;28;20220;-72
2021/08/15 06:12:12;;;;;;;6.13;5.43;;;17.70;99.90;;;;;;4932061;28;20258;-73
2021/08/15 06:14:37;;;;;;;5.17;4.67;;;17.70;99.90;;;;;;4933455;28;20581;-73
2021/08/15 06:17:03;;;;;;;5.67;4.97;;;17.70;99.90;;;;;;4928185;28;20281;-73
2021/08/15 06:19:29;;;;;;;5.80;5.20;;;17.70;99.90;;;;;;4932977;28;22905;-73
2021/08/15 06:21:55;;;;;;;5.30;4.27;;;17.60;99.90;;;;;;4936259;28;20652;-73
2021/08/15 06:24:20;;;;;;;5.20;4.53;;;17.60;99.90;;;;;;4934830;28;20184;-72
2021/08/15 06:26:46;;;;;;;6.00;5.50;;;17.50;99.90;;;;;;4930386;28;20275;-73
2021/08/15 06:29:11;;;;;;;6.83;6.13;;;17.60;99.90;;;;;;4932370;28;20192;-73
2021/08/15 06:31:37;;;;;;;7.40;5.00;;;17.60;99.90;;;;;;4927556;28;20243;-73
2021/08/15 06:34:03;;;;;;;6.63;4.70;;;17.60;99.90;;;;;;4932963;28;20215;-73
2021/08/15 06:36:28;;;;;;;6.80;5.40;;;17.50;99.90;;;;;;4935370;29;20196;-74
2021/08/15 06:38:57;;;;;;;5.83;4.80;;;17.50;99.90;;;;;;4935723;29;20630;-73
2021/08/15 06:41:23;;;;;;;5.60;4.90;;;17.50;99.90;;;;;;4934443;28;20208;-72
2021/08/15 06:43:48;;;;;;;6.03;5.43;;;17.50;99.90;;;;;;4937373;29;20650;-73
2021/08/15 06:46:15;;;;;;;6.10;5.10;;;17.50;99.90;;;;;;4934196;28;20288;-73
2021/08/15 06:48:44;;;;;;;5.43;4.97;;;17.60;99.90;;;;;;4934995;28;20240;-72
2021/08/15 06:51:10;;;;;;;5.87;5.27;;;17.60;99.90;;;;;;4936203;29;20698;-73
2021/08/15 06:53:38;;;;;;;6.63;5.60;;;17.60;99.90;;;;;;4933772;28;20652;-73
2021/08/15 06:56:05;;;;;;;5.60;4.60;;;17.60;99.90;;;;;;4935822;29;20788;-73
2021/08/15 06:58:32;;;;;;;5.23;4.73;;;17.60;99.90;;;;;;4933739;29;20619;-73
2021/08/15 07:00:58;;;;;;;6.00;5.40;;;17.60;99.90;;;;;;4933530;29;20651;-72
2021/08/15 07:03:23;;;;;;;5.27;4.77;;;17.60;99.90;;;;;;4936973;28;20706;-73
2021/08/15 07:05:49;;;;;;;5.30;4.63;;;17.70;99.90;;;;;;4934198;28;20334;-73
2021/08/15 07:08:15;;;;;;;5.40;4.50;;;17.60;99.90;;;;;;4934606;28;20228;-73
2021/08/15 07:10:41;;;;;;;5.80;5.20;;;17.70;99.90;;;;;;4934623;28;23070;-73
2021/08/15 07:13:07;;;;;;;4.53;4.10;;;17.70;99.90;;;;;;4938118;28;21290;-74
2021/08/15 07:15:33;;;;;;;5.97;4.87;;;17.70;99.90;;;;;;4935782;28;20231;-74
2021/08/15 07:17:59;;;;;;;5.00;3.70;;;17.70;99.90;;;;;;4936126;29;20671;-74
2021/08/15 07:20:26;;;;;;;4.73;4.23;;;17.70;99.90;;;;;;4933066;28;20252;-74
2021/08/15 07:22:51;;;;;;;4.83;4.33;;;17.70;99.90;;;;;;4934504;28;20220;-75
2021/08/15 07:25:19;;;;;;;4.50;4.10;;;17.70;99.90;;;;;;4935640;28;20743;-74
2021/08/15 07:27:45;;;;;;;4.87;4.37;;;17.70;99.90;;;;;;4940094;28;20195;-73
2021/08/15 07:30:12;;;;;;;4.13;3.80;;;17.70;99.90;;;;;;4937067;28;20695;-74
2021/08/15 07:32:54;;;;;;;4.37;3.67;;;17.70;99.90;;;;;;4935266;28;21217;-74
2021/08/15 07:35:20;;;;;;;4.70;4.17;;;17.80;99.90;;;;;;4941749;28;20624;-74
2021/08/15 07:37:46;;;;;;;5.00;4.07;;;17.70;99.90;;;;;;4933741;28;20628;-74
2021/08/15 07:40:13;;;;;;;5.93;3.53;;;17.70;99.90;;;;;;4949325;28;21309;-74
2021/08/15 07:42:39;;;;;;;4.83;3.90;;;17.70;99.90;;;;;;4937442;28;21270;-73
2021/08/15 07:45:05;;;;;;;4.10;3.70;;;17.80;99.90;;;;;;4941260;29;20830;-73
2021/08/15 07:47:31;;;;;;;5.27;4.00;;;17.80;99.90;;;;;;4936403;28;20214;-73
2021/08/15 07:49:56;;;;;;;6.50;4.60;;;17.80;99.90;;;;;;4935979;28;21166;-73
2021/08/15 07:52:22;;;;;;;5.03;3.43;;;17.80;99.90;;;;;;4937974;28;20220;-72
2021/08/15 07:54:47;;;;;;;4.70;4.30;;;17.80;99.90;;;;;;4933822;28;20184;-73
2021/08/15 07:57:13;;;;;;;5.60;4.00;;;17.80;99.90;;;;;;4938996;28;20200;-73
2021/08/15 07:59:38;;;;;;;4.97;4.33;;;17.80;99.90;;;;;;4936202;28;20234;-73
2021/08/15 08:02:04;;;;;;;6.30;3.73;;;17.80;99.90;;;;;;4935130;28;20723;-73
2021/08/15 08:04:30;;;;;;;4.17;3.43;;;17.80;99.90;;;;;;4935938;28;20199;-73
2021/08/15 08:07:02;;;;;;;4.43;3.67;;;17.80;99.90;;;;;;4936813;28;20230;-73
2021/08/15 08:09:28;;;;;;;5.23;4.50;;;17.80;99.90;;;;;;4938139;28;20586;-73
2021/08/15 08:11:55;;;;;;;4.97;4.47;;;17.80;99.90;;;;;;4936881;28;20663;-73
2021/08/15 08:14:22;;;;;;;6.33;5.20;;;17.80;99.90;;;;;;4936517;28;20283;-73
2021/08/15 08:16:48;;;;;;;5.30;4.57;;;17.80;99.90;;;;;;4935453;29;20683;-72
2021/08/15 08:19:13;;;;;;;6.40;4.63;;;17.80;99.90;;;;;;4935716;28;20646;-73
2021/08/15 08:21:39;;;;;;;4.90;4.50;;;17.80;99.90;;;;;;4936093;28;20227;-74
2021/08/15 08:24:06;;;;;;;6.93;4.20;;;17.80;99.90;;;;;;4938665;28;20195;-74
2021/08/15 08:26:33;;;;;;;4.43;4.03;;;17.80;99.90;;;;;;4939470;28;20191;-74
2021/08/15 08:28:58;;;;;;;4.50;4.10;;;17.80;99.90;;;;;;4936825;28;20658;-74
2021/08/15 08:31:24;;;;;;;4.53;4.10;;;17.80;99.90;;;;;;4941329;28;20667;-73
2021/08/15 08:33:49;;;;;;;6.37;4.43;;;17.80;99.90;;;;;;4937677;28;21483;-74
2021/08/15 08:36:15;;;;;;;5.23;4.43;;;17.80;99.90;;;;;;4943384;28;20189;-74
2021/08/15 08:38:41;;;;;;;6.40;5.10;;;17.80;99.90;;;;;;4955954;28;20272;-74
2021/08/15 08:41:10;;;;;;;5.30;4.60;;;17.80;99.90;;;;;;4950669;28;20227;-74
2021/08/15 08:43:37;;;;;;;7.53;5.27;;;17.80;99.90;;;;;;4940102;28;20234;-74
2021/08/15 08:46:03;;;;;;;7.00;5.83;;;17.80;99.90;;;;;;4938446;28;20622;-74
2021/08/15 08:48:29;;;;;;;6.17;5.67;;;17.80;99.90;;;;;;4940969;28;21390;-74
2021/08/15 08:50:55;;;;;;;8.23;7.43;;;17.80;99.90;;;;;;4939189;28;20671;-74
2021/08/15 08:53:21;;;;;;;9.10;7.50;;;17.90;99.90;;;;;;4940813;28;20583;-74
2021/08/15 08:55:47;;;;;;;8.83;7.80;;;17.90;99.90;;;;;;4938495;28;20251;-75
2021/08/15 08:58:12;;;;;;;8.67;7.60;;;17.90;99.90;;;;;;4939941;28;21174;-74
2021/08/15 09:00:38;;;;;;;8.80;7.87;;;18.00;99.90;;;;;;4939353;28;20625;-75
2021/08/15 09:03:04;;;;;;;10.60;7.93;;;18.10;99.90;;;;;;4936997;28;20611;-74
2021/08/15 09:05:32;;;;;;;9.03;7.47;;;18.10;99.90;;;;;;4940129;28;20195;-74
2021/08/15 09:07:58;;;;;;;12.30;9.00;;;18.20;99.90;;;;;;4937760;28;20216;-73
2021/08/15 09:10:34;;;;;;;11.10;9.53;;;18.20;99.90;;;;;;4936431;28;20671;-74
2021/08/15 09:13:07;;;;;;;9.90;8.70;;;18.30;99.90;;;;;;4931920;28;20238;-73
2021/08/15 09:15:33;;;;;;;11.77;9.43;;;18.30;99.90;;;;;;4942551;28;21328;-73
2021/08/15 09:18:00;;;;;;;9.97;8.87;;;18.30;99.90;;;;;;4939318;28;20620;-73
2021/08/15 09:20:47;;;;;;;10.17;9.07;;;18.40;99.90;;;;;;4934231;28;20864;-73
2021/08/15 09:23:36;;;;;;;10.17;9.17;;;18.50;99.90;;;;;;4940555;28;20643;-74
2021/08/15 09:26:17;;;;;;;10.03;8.90;;;18.60;99.90;;;;;;4941468;29;20611;-74
2021/08/15 09:28:43;;;;;;;13.10;9.00;;;18.70;99.90;;;;;;4939205;28;21266;-73
2021/08/15 09:31:28;;;;;;;10.40;8.77;;;18.70;99.90;;;;;;4938609;28;21395;-73
2021/08/15 09:33:56;;;;;;;12.73;10.47;;;18.80;99.90;;;;;;4936250;28;20741;-73
2021/08/15 09:36:30;;;;;;;13.07;11.10;;;18.80;99.90;;;;;;4933962;28;21079;-73
2021/08/15 09:39:00;;;;;;;11.70;10.33;;;18.90;99.90;;;;;;4937594;28;20667;-73
2021/08/15 09:41:27;;;;;;;12.37;11.07;;;19.00;99.90;;;;;;4935556;28;21214;-74
2021/08/15 09:44:18;;;;;;;16.00;11.60;;;19.00;99.90;;;;;;4936989;29;20706;-73
2021/08/15 09:47:02;;;;;;;14.43;11.10;;;19.00;99.90;;;;;;4943602;29;20687;-73
2021/08/15 09:49:42;;;;;;;12.03;10.83;;;19.10;99.90;;;;;;4939237;28;21217;-73
2021/08/15 09:52:13;;;;;;;17.53;11.73;;;19.10;99.90;;;;;;4934399;28;21076;-74
2021/08/15 09:54:39;;;;;;;14.37;12.40;;;19.20;99.90;;;;;;4937648;28;20640;-74
2021/08/15 09:57:10;;;;;;;19.70;17.20;;;19.10;99.90;;;;;;4939587;28;20992;-74
2021/08/15 09:59:39;;;;;;;20.13;15.67;;;19.20;99.90;;;;;;4933305;28;20737;-74
2021/08/15 10:02:05;;;;;;;20.53;16.90;;;19.20;99.90;;;;;;4940247;28;20744;-72
2021/08/15 10:04:31;;;;;;;19.83;16.23;;;19.20;99.90;;;;;;4936847;28;20626;-75
2021/08/15 10:06:57;;;;;;;17.80;15.90;;;19.20;99.90;;;;;;4938170;28;20623;-74
2021/08/15 10:09:25;;;;;;;19.37;15.73;;;19.20;99.90;;;;;;4934290;28;21206;-73
2021/08/15 10:11:51;;;;;;;19.43;16.77;;;19.20;99.90;;;;;;4936968;28;20652;-74
2021/08/15 10:14:17;;;;;;;19.13;16.87;;;19.30;99.90;;;;;;4939602;28;20821;-74
2021/08/15 10:16:54;;;;;;;20.63;18.53;;;19.30;99.90;;;;;;4934004;28;21026;-74
2021/08/15 10:19:30;;;;;;;19.60;17.60;;;19.30;99.90;;;;;;4945007;29;20286;-74
2021/08/15 10:21:56;;;;;;;18.43;15.50;;;19.30;99.90;;;;;;4934860;28;20648;-73
2021/08/15 10:24:22;;;;;;;20.53;17.33;;;19.30;99.90;;;;;;4940925;29;20666;-74
2021/08/15 10:26:51;;;;;;;20.80;17.13;;;19.20;99.90;;;;;;4933342;29;20632;-74
2021/08/15 10:29:34;;;;;;;19.93;15.30;;;19.20;99.90;;;;;;4935079;28;20465;-74
2021/08/15 10:32:11;;;;;;;19.67;16.23;;;19.20;99.90;;;;;;4935189;28;20652;-75
2021/08/15 10:34:49;;;;;;;18.60;15.10;;;19.30;99.90;;;;;;4937326;28;20662;-74
2021/08/15 10:37:38;;;;;;;20.97;15.47;;;19.30;99.90;;;;;;4933777;28;20634;-73
2021/08/15 10:40:08;;;;;;;16.77;14.70;;;19.30;99.90;;;;;;4936587;28;20678;-74
2021/08/15 10:42:42;;;;;;;16.07;13.63;;;19.30;99.90;;;;;;4939186;28;20679;-73
2021/08/15 10:45:12;;;;;;;19.23;14.70;;;19.30;99.90;;;;;;4932472;28;20683;-75
2021/08/15 10:47:38;;;;;;;18.17;14.70;;;19.30;99.90;;;;;;4932087;28;21260;-75
2021/08/15 10:50:06;;;;;;;23.00;15.70;;;19.20;99.90;;;;;;4932186;28;20991;-74
2021/08/15 10:52:39;;;;;;;15.87;14.20;;;19.30;99.90;;;;;;4932164;28;20279;-75
2021/08/15 10:55:15;;;;;;;19.20;13.33;;;19.30;99.90;;;;;;4938064;28;20608;-73
2021/08/15 10:57:46;;;;;;;17.43;13.27;;;19.30;99.90;;;;;;4933158;28;21211;-74
2021/08/15 11:00:30;;;;;;;21.83;14.37;;;19.30;99.90;;;;;;4934914;28;20640;-73
2021/08/15 11:03:14;;;;;;;15.80;13.63;;;19.30;99.90;;;;;;4934049;28;20674;-73
2021/08/15 11:05:40;;;;;;;19.20;14.30;;;19.40;99.90;;;;;;4934631;28;20656;-73
2021/08/15 11:08:31;;;;;;;20.13;13.97;;;19.50;99.90;;;;;;4936598;28;20709;-73
2021/08/15 11:11:04;;;;;;;19.00;13.50;;;19.60;99.90;;;;;;4932343;28;21295;-73
2021/08/15 11:13:31;;;;;;;18.27;15.20;;;19.80;99.90;;;;;;4939702;28;21122;-73
2021/08/15 11:16:24;;;;;;;18.67;14.33;;;20.00;99.90;;;;;;4934841;28;20731;-73
2021/08/15 11:19:10;;;;;;;14.73;12.90;;;20.10;99.90;;;;;;4928933;28;20626;-73
2021/08/15 11:22:13;;;;;;;17.50;14.27;;;20.30;99.90;;;;;;4930269;28;20655;-72
2021/08/15 11:24:47;;;;;;;16.53;12.90;;;20.50;99.90;;;;;;4932735;28;20623;-77
2021/08/15 11:27:24;;;;;;;13.80;11.70;;;20.60;99.90;;;;;;4934167;28;20635;-74
2021/08/15 11:29:50;;;;;;;19.47;12.83;;;20.80;99.90;;;;;;4928677;28;20655;-74
2021/08/15 11:32:19;;;;;;;16.30;13.33;;;21.00;99.90;;;;;;4938136;28;20653;-75
2021/08/15 11:34:51;;;;;;;17.17;12.97;;;21.20;99.90;;;;;;4928904;28;20632;-75
2021/08/15 11:37:22;;;;;;;15.70;13.13;;;21.20;99.90;;;;;;4935666;28;20628;-75
2021/08/15 11:39:49;;;;;;;15.40;11.90;;;21.40;99.90;;;;;;4932656;28;20781;-75
2021/08/15 11:42:23;;;;;;;13.03;11.37;;;21.60;99.90;;;;;;4932840;28;20689;-75
2021/08/15 11:45:00;;;;;;;14.40;12.47;;;21.70;99.90;;;;;;4930194;28;20694;-75
2021/08/15 11:47:34;;;;;;;16.47;12.23;;;21.90;99.90;;;;;;4934391;28;20734;-74
2021/08/15 11:50:21;;;;;;;15.27;11.77;;;22.10;99.90;;;;;;4929793;28;20651;-73
2021/08/15 11:52:49;;;;;;;14.40;11.90;;;22.30;99.90;;;;;;4929683;28;20631;-74
2021/08/15 11:55:26;;;;;;;18.60;11.60;;;22.40;99.90;;;;;;4928045;28;20738;-73
2021/08/15 11:57:52;;;;;;;14.87;10.87;;;22.60;99.90;;;;;;4938568;28;21047;-74
2021/08/15 12:00:29;;;;;;;13.20;10.97;;;22.70;99.90;;;;;;4936582;28;20773;-74
2021/08/15 12:03:15;;;;;;;15.60;12.30;;;22.90;99.90;;;;;;4937659;28;21234;-75
2021/08/15 12:06:00;;;;;;;13.00;11.77;;;23.10;99.90;;;;;;4937681;29;20634;-74
2021/08/15 12:08:41;;;;;;;14.27;11.30;;;23.30;99.90;;;;;;4939960;29;24146;-75
2021/08/15 12:11:28;;;;;;;11.70;10.57;;;23.40;99.90;;;;;;4936764;28;20706;-74
2021/08/15 12:14:09;;;;;;;11.50;10.30;;;23.60;99.90;;;;;;4936902;29;20702;-74
2021/08/15 12:16:36;;;;;;;15.93;10.67;;;23.90;99.90;;;;;;4940408;29;20631;-74
2021/08/15 12:19:02;;;;;;;13.40;10.97;;;24.00;99.90;;;;;;4934121;28;21220;-73
2021/08/15 12:21:33;;;;;;;13.83;12.43;;;24.20;99.90;;;;;;4935139;28;20651;-76
2021/08/15 12:24:07;;;;;;;11.90;10.80;;;24.30;99.90;;;;;;4938639;28;20627;-73
2021/08/15 12:26:35;;;;;;;11.50;10.10;;;24.40;99.90;;;;;;4932579;28;20650;-74
2021/08/15 12:29:07;;;;;;;13.27;10.80;;;24.40;99.90;;;;;;4933669;28;21027;-73
2021/08/15 12:31:35;;;;;;;11.53;9.40;;;24.50;99.90;;;;;;4930044;28;20983;-75
2021/08/15 12:34:16;;;;;;;10.60;9.13;;;24.60;99.90;;;;;;4935239;28;20637;-74
2021/08/15 12:36:49;;;;;;;12.47;11.03;;;24.90;99.90;;;;;;4937399;28;20610;-75
2021/08/15 12:39:17;;;;;;;10.87;9.27;;;25.10;99.90;;;;;;4937812;28;20630;-77
2021/08/15 12:41:47;;;;;;;9.07;8.20;;;25.30;99.90;;;;;;4931375;28;20647;-76
2021/08/15 12:44:15;;;;;;;9.20;8.17;;;25.50;99.90;;;;;;4937375;28;21226;-76
2021/08/15 12:46:40;;;;;;;9.73;8.83;;;25.80;99.90;;;;;;4938166;28;20646;-76
2021/08/15 12:49:22;;;;;;;9.73;8.83;;;25.80;99.90;;;;;;4943284;28;21132;-75